Time;durP1;ratioP1;P1;durP2;ratioP2;P2;SDS_P1;SDS_P2;PMS_P1;PMS_P2;Temp;Humidity;BMP_temperature;BMP_pressure;BME280_temperature;BME280_humidity;BME280_pressure;Samples;Min_cycle;Max_cycle;Signal;HPM_P1;HPM_P2
2021/11/27 00:00:56;;;;;;;7.45;4.80;;;4.10;1.00;;;;;;4996030;28;20208;-74
2021/11/27 00:03:22;;;;;;;9.27;4.10;;;4.10;1.00;;;;;;4995942;28;20174;-74
2021/11/27 00:05:49;;;;;;;9.07;3.67;;;4.20;1.00;;;;;;4995371;28;20209;-74
2021/11/27 00:08:16;;;;;;;5.45;3.85;;;4.20;1.00;;;;;;4995938;28;20239;-76
2021/11/27 00:10:44;;;;;;;5.60;4.15;;;4.20;1.00;;;;;;4996111;28;20715;-76
2021/11/27 00:13:11;;;;;;;4.93;4.10;;;4.20;1.00;;;;;;4995506;28;20181;-76
2021/11/27 00:15:38;;;;;;;6.68;3.92;;;4.20;1.00;;;;;;4995561;28;20181;-76
2021/11/27 00:18:06;;;;;;;7.57;4.40;;;4.20;1.00;;;;;;4995522;28;20213;-76
2021/11/27 00:20:39;;;;;;;7.50;3.00;;;4.20;1.00;;;;;;4995642;28;20622;-76
2021/11/27 00:23:05;;;;;;;11.20;5.13;;;4.20;1.00;;;;;;4995824;28;20629;-74
2021/11/27 00:25:31;;;;;;;8.07;4.80;;;4.20;1.00;;;;;;4995107;28;20727;-74
2021/11/27 00:27:57;;;;;;;13.37;3.90;;;4.20;1.00;;;;;;4995270;28;20182;-74
2021/11/27 00:30:28;;;;;;;4.87;3.50;;;4.30;1.00;;;;;;4995606;28;20444;-74
2021/11/27 00:32:53;;;;;;;4.50;3.40;;;4.30;1.00;;;;;;4995020;28;20253;-74
2021/11/27 00:35:20;;;;;;;6.23;4.10;;;4.30;1.00;;;;;;4995141;28;20272;-74
2021/11/27 00:37:51;;;;;;;5.72;3.80;;;4.20;1.00;;;;;;4995364;28;20209;-73
2021/11/27 00:40:17;;;;;;;4.77;3.63;;;4.10;1.00;;;;;;4994900;28;20190;-74
2021/11/27 00:42:44;;;;;;;4.47;3.05;;;4.20;1.00;;;;;;4995054;28;20424;-74
2021/11/27 00:45:12;;;;;;;4.22;2.80;;;4.30;1.00;;;;;;4994776;28;20236;-74
2021/11/27 00:47:44;;;;;;;8.35;3.03;;;4.30;1.00;;;;;;4994593;28;20173;-74
2021/11/27 00:50:14;;;;;;;3.50;2.30;;;4.30;1.00;;;;;;4990210;28;20173;-74
2021/11/27 00:52:39;;;;;;;4.75;3.38;;;4.20;1.00;;;;;;4994729;28;20260;-74
2021/11/27 00:55:07;;;;;;;4.57;3.33;;;4.30;1.00;;;;;;4995433;28;20264;-76
2021/11/27 00:57:33;;;;;;;6.95;2.83;;;4.20;1.00;;;;;;4995010;28;20178;-76
2021/11/27 00:59:58;;;;;;;2.83;2.22;;;4.30;1.00;;;;;;4994922;28;20668;-76
2021/11/27 01:02:24;;;;;;;4.13;3.20;;;4.30;1.00;;;;;;4994536;28;20186;-76
2021/11/27 01:04:50;;;;;;;3.20;2.70;;;4.30;1.00;;;;;;4994698;28;20579;-76
2021/11/27 01:07:16;;;;;;;2.60;2.40;;;4.30;1.00;;;;;;4994840;28;20178;-76
2021/11/27 01:09:41;;;;;;;3.13;2.60;;;4.40;1.00;;;;;;4993567;28;20679;-76
2021/11/27 01:12:08;;;;;;;3.80;2.60;;;4.30;1.00;;;;;;4994854;28;20174;-76
2021/11/27 01:14:35;;;;;;;2.35;2.15;;;4.40;1.00;;;;;;4994388;28;20542;-76
2021/11/27 01:17:06;;;;;;;3.92;2.95;;;4.40;1.00;;;;;;4984121;28;20174;-75
2021/11/27 01:19:33;;;;;;;5.30;2.83;;;4.40;1.00;;;;;;4994310;28;20653;-75
2021/11/27 01:22:06;;;;;;;3.63;2.80;;;4.40;1.00;;;;;;4994352;28;20213;-76
2021/11/27 01:24:33;;;;;;;3.95;3.30;;;;;;;;;;4994658;28;20579;-75
2021/11/27 01:27:00;;;;;;;5.45;2.70;;;4.40;1.00;;;;;;4994175;28;20178;-76
2021/11/27 01:29:26;;;;;;;11.13;3.13;;;;;;;;;;4994307;28;20209;-76
2021/11/27 01:31:52;;;;;;;3.13;2.70;;;;;;;;;;4994067;28;20265;-76
2021/11/27 01:34:18;;;;;;;5.47;3.45;;;;;;;;;;4994486;28;20184;-75
2021/11/27 01:36:44;;;;;;;3.97;2.70;;;4.50;1.00;;;;;;4994145;28;20193;-76
2021/11/27 01:39:10;;;;;;;4.70;3.22;;;4.50;1.00;;;;;;4994350;28;20186;-75
2021/11/27 01:41:36;;;;;;;2.70;2.50;;;4.40;1.00;;;;;;4994247;28;20547;-76
2021/11/27 01:44:04;;;;;;;4.47;3.38;;;4.40;1.00;;;;;;4992848;28;20209;-76
2021/11/27 01:46:31;;;;;;;3.63;2.67;;;4.50;1.00;;;;;;4993368;28;20173;-75
2021/11/27 01:48:57;;;;;;;3.58;3.05;;;1.80;1.00;;;;;;4993231;28;20231;-75
2021/11/27 01:51:24;;;;;;;2.92;2.33;;;4.60;1.00;;;;;;4994100;28;20184;-76
2021/11/27 01:54:03;;;;;;;4.15;2.78;;;4.50;1.00;;;;;;4993800;28;20173;-73
2021/11/27 01:56:36;;;;;;;5.00;2.90;;;4.50;1.00;;;;;;4996917;28;20240;-74
2021/11/27 01:59:04;;;;;;;4.17;2.90;;;4.60;1.00;;;;;;4993822;28;20177;-74
2021/11/27 02:01:32;;;;;;;2.78;2.58;;;4.60;1.00;;;;;;4992031;28;20421;-74
2021/11/27 02:03:59;;;;;;;4.50;2.33;;;4.60;1.00;;;;;;4993426;28;20688;-74
2021/11/27 02:06:26;;;;;;;3.30;3.00;;;4.60;1.00;;;;;;4993386;28;20424;-74
2021/11/27 02:08:54;;;;;;;2.88;2.38;;;4.60;1.00;;;;;;4993790;28;20174;-74
2021/11/27 02:11:24;;;;;;;4.93;3.00;;;4.60;1.00;;;;;;4993707;28;20180;-74
2021/11/27 02:13:50;;;;;;;3.42;2.83;;;4.60;1.00;;;;;;4982863;28;20552;-74
2021/11/27 02:16:15;;;;;;;3.40;2.73;;;4.70;1.00;;;;;;4993752;28;20173;-74
2021/11/27 02:18:41;;;;;;;3.60;2.17;;;;;;;;;;4993361;28;20177;-74
2021/11/27 02:21:11;;;;;;;2.00;1.90;;;4.70;1.00;;;;;;4993047;28;20200;-74
2021/11/27 02:23:37;;;;;;;4.25;2.63;;;4.80;1.00;;;;;;4993354;28;20291;-74
2021/11/27 02:26:07;;;;;;;3.53;2.20;;;4.80;1.00;;;;;;4993839;28;20181;-76
2021/11/27 02:28:34;;;;;;;3.90;2.97;;;4.80;1.00;;;;;;4993454;28;20188;-76
2021/11/27 02:31:01;;;;;;;5.80;3.25;;;4.80;1.00;;;;;;4993432;28;20491;-76
2021/11/27 02:33:27;;;;;;;3.47;2.35;;;4.80;1.00;;;;;;4993154;28;20181;-76
2021/11/27 02:35:53;;;;;;;5.07;2.50;;;4.80;1.00;;;;;;4993858;28;20207;-76
2021/11/27 02:38:19;;;;;;;10.00;2.87;;;4.80;1.00;;;;;;4993318;28;20661;-76
2021/11/27 02:40:45;;;;;;;2.33;2.13;;;4.80;1.00;;;;;;4993214;28;20199;-76
2021/11/27 02:43:11;;;;;;;3.73;2.47;;;4.80;1.00;;;;;;4992799;28;20425;-76
2021/11/27 02:45:36;;;;;;;5.30;2.60;;;4.80;1.00;;;;;;4993297;28;20456;-76
2021/11/27 02:48:03;;;;;;;5.40;2.50;;;4.80;1.00;;;;;;4992785;28;20514;-76
2021/11/27 02:50:29;;;;;;;2.93;2.03;;;4.80;1.00;;;;;;4990354;28;20530;-76
2021/11/27 02:52:55;;;;;;;2.07;1.77;;;4.80;1.00;;;;;;4992636;28;20479;-76
2021/11/27 02:55:20;;;;;;;4.97;2.40;;;4.80;1.00;;;;;;4997547;28;20632;-74
2021/11/27 02:57:46;;;;;;;2.20;2.10;;;4.80;1.00;;;;;;4992953;28;20456;-74
2021/11/27 03:00:17;;;;;;;2.13;1.93;;;4.80;1.00;;;;;;4993024;28;20181;-74
2021/11/27 03:02:43;;;;;;;2.42;2.25;;;4.80;1.00;;;;;;4992355;28;20469;-74
2021/11/27 03:05:09;;;;;;;2.40;2.20;;;4.80;1.00;;;;;;4993052;28;20197;-74
2021/11/27 03:07:35;;;;;;;5.37;2.30;;;4.80;1.00;;;;;;4993178;28;20181;-74
2021/11/27 03:10:01;;;;;;;3.10;2.07;;;4.80;1.00;;;;;;4993253;28;20416;-76
2021/11/27 03:12:27;;;;;;;4.40;2.20;;;4.80;1.00;;;;;;4993057;28;20182;-76
2021/11/27 03:14:52;;;;;;;1.87;1.77;;;4.80;1.00;;;;;;4991216;28;20906;-76
2021/11/27 03:17:18;;;;;;;2.70;1.90;;;4.80;1.00;;;;;;4992669;28;20329;-76
2021/11/27 03:19:44;;;;;;;1.73;1.63;;;4.80;1.00;;;;;;4992802;28;20188;-76
2021/11/27 03:22:14;;;;;;;2.30;2.10;;;4.80;1.00;;;;;;4993099;28;20498;-76
2021/11/27 03:24:40;;;;;;;2.40;2.22;;;4.80;1.00;;;;;;4991466;28;20233;-74
2021/11/27 03:27:06;;;;;;;2.08;1.85;;;4.80;1.00;;;;;;4996772;28;20196;-74
2021/11/27 03:29:35;;;;;;;2.85;2.45;;;5.10;1.00;;;;;;4996558;28;20188;-74
2021/11/27 03:32:08;;;;;;;3.13;2.00;;;4.80;1.00;;;;;;4996020;28;20181;-74
2021/11/27 03:34:34;;;;;;;1.63;1.53;;;;;;;;;;4996317;28;20423;-74
2021/11/27 03:36:59;;;;;;;1.65;1.50;;;4.70;1.00;;;;;;4995139;28;20528;-74
2021/11/27 03:39:28;;;;;;;1.87;1.77;;;4.70;1.00;;;;;;4996554;28;20272;-75
2021/11/27 03:41:53;;;;;;;2.05;1.70;;;4.60;1.00;;;;;;4995657;28;20301;-74
2021/11/27 03:44:19;;;;;;;2.40;1.80;;;4.70;1.00;;;;;;4996344;28;20656;-74
2021/11/27 03:46:45;;;;;;;3.17;2.87;;;;;;;;;;4996054;28;20213;-74
2021/11/27 03:49:12;;;;;;;1.95;1.85;;;;;;;;;;4986866;28;20843;-74
2021/11/27 03:51:38;;;;;;;1.90;1.80;;;4.70;1.00;;;;;;4995963;28;20306;-74
2021/11/27 03:54:04;;;;;;;5.00;2.40;;;4.80;1.00;;;;;;4995819;28;20929;-74
2021/11/27 03:56:31;;;;;;;2.20;2.10;;;4.70;1.00;;;;;;5000371;28;20449;-74
2021/11/27 03:58:59;;;;;;;3.08;2.05;;;4.70;1.00;;;;;;4995783;28;20181;-74
2021/11/27 04:01:26;;;;;;;3.57;2.27;;;4.70;1.00;;;;;;4995787;28;20394;-74
2021/11/27 04:03:55;;;;;;;2.23;2.10;;;4.80;1.00;;;;;;4995879;28;20428;-74
2021/11/27 04:06:21;;;;;;;2.13;1.93;;;4.80;1.00;;;;;;4995485;28;20471;-74
2021/11/27 04:08:47;;;;;;;1.80;1.70;;;4.80;1.00;;;;;;4995644;28;20425;-74
2021/11/27 04:11:13;;;;;;;3.23;2.27;;;4.80;1.00;;;;;;4996496;28;20436;-74
2021/11/27 04:13:39;;;;;;;2.67;2.08;;;4.80;1.00;;;;;;4995699;28;20482;-74
2021/11/27 04:16:05;;;;;;;2.10;2.00;;;4.90;1.00;;;;;;4995385;28;20268;-74
2021/11/27 04:18:31;;;;;;;2.90;2.30;;;4.80;1.00;;;;;;4996005;28;20427;-74
2021/11/27 04:20:59;;;;;;;2.80;1.92;;;4.80;1.00;;;;;;4995607;28;20208;-74
2021/11/27 04:23:26;;;;;;;2.10;1.93;;;4.80;1.00;;;;;;4995374;28;20182;-74
2021/11/27 04:25:52;;;;;;;2.85;2.25;;;4.80;1.00;;;;;;4995753;28;20484;-74
2021/11/27 04:28:18;;;;;;;5.45;2.38;;;4.80;1.00;;;;;;4995704;28;20177;-74
2021/11/27 04:30:44;;;;;;;3.70;2.43;;;4.70;1.00;;;;;;4995002;28;20182;-74
2021/11/27 04:33:11;;;;;;;2.60;2.40;;;4.70;1.00;;;;;;4995340;28;20439;-74
2021/11/27 04:35:37;;;;;;;2.55;2.30;;;;;;;;;;4994958;28;20426;-74
2021/11/27 04:38:04;;;;;;;6.30;2.13;;;4.80;1.00;;;;;;4995116;28;20216;-74
2021/11/27 04:40:31;;;;;;;1.80;1.70;;;4.80;1.00;;;;;;4995234;28;20509;-75
2021/11/27 04:42:58;;;;;;;2.53;1.83;;;4.80;1.00;;;;;;4995203;28;20205;-76
2021/11/27 04:45:24;;;;;;;1.73;1.63;;;4.80;1.00;;;;;;4994981;28;20456;-76
2021/11/27 04:47:49;;;;;;;2.13;1.97;;;4.80;1.00;;;;;;4995102;28;20424;-76
2021/11/27 04:50:17;;;;;;;3.33;2.20;;;4.80;1.00;;;;;;4994503;28;20173;-76
2021/11/27 04:52:43;;;;;;;3.13;2.40;;;4.80;1.00;;;;;;4983893;28;20633;-77
2021/11/27 04:55:10;;;;;;;2.27;2.17;;;4.80;1.00;;;;;;4999461;28;21022;-74
2021/11/27 04:57:37;;;;;;;4.43;2.17;;;4.80;1.00;;;;;;4994602;28;20443;-74
2021/11/27 05:00:10;;;;;;;2.60;2.10;;;4.80;1.00;;;;;;4994945;28;20710;-74
2021/11/27 05:02:36;;;;;;;3.90;2.60;;;4.80;1.00;;;;;;4994781;28;20424;-74
2021/11/27 05:05:02;;;;;;;1.80;1.70;;;;;;;;;;4993889;28;20466;-74
2021/11/27 05:07:27;;;;;;;1.73;1.63;;;4.90;1.00;;;;;;4994836;28;20538;-74
2021/11/27 05:09:53;;;;;;;1.70;1.60;;;4.90;1.00;;;;;;4994723;28;20421;-74
2021/11/27 05:12:19;;;;;;;4.17;1.80;;;4.90;1.00;;;;;;4994967;28;20177;-74
2021/11/27 05:14:44;;;;;;;2.90;2.23;;;4.90;1.00;;;;;;4994244;28;20232;-74
2021/11/27 05:17:10;;;;;;;2.43;1.97;;;4.90;1.00;;;;;;4994568;28;20177;-74
2021/11/27 05:19:36;;;;;;;2.10;1.83;;;4.90;1.00;;;;;;4994252;28;20599;-74
2021/11/27 05:22:03;;;;;;;2.30;2.10;;;4.90;1.00;;;;;;4994083;28;20276;-74
2021/11/27 05:24:28;;;;;;;4.03;2.10;;;4.90;1.00;;;;;;4994328;28;20321;-74
2021/11/27 05:26:54;;;;;;;1.57;1.03;;;4.90;1.00;;;;;;4994433;28;20440;-76
2021/11/27 05:29:20;;;;;;;2.10;2.00;;;4.90;1.00;;;;;;4994418;28;20256;-76
2021/11/27 05:31:46;;;;;;;2.60;1.87;;;;;;;;;;4994065;28;20173;-76
2021/11/27 05:36:50;;;;;;;3.03;2.27;;;5.00;1.00;;;;;;4993994;28;20425;-76
2021/11/27 05:39:15;;;;;;;2.30;1.30;;;5.00;1.00;;;;;;4994304;28;20930;-75
2021/11/27 05:41:41;;;;;;;4.60;1.73;;;5.00;1.00;;;;;;4994275;28;20185;-75
2021/11/27 05:44:07;;;;;;;3.27;2.13;;;5.00;1.00;;;;;;4994088;28;20225;-75
2021/11/27 05:46:33;;;;;;;5.00;1.60;;;4.90;1.00;;;;;;4993639;28;20177;-78
2021/11/27 05:48:59;;;;;;;1.73;1.63;;;4.90;1.00;;;;;;4993086;28;20518;-76
2021/11/27 05:51:25;;;;;;;2.73;1.50;;;4.90;1.00;;;;;;4993823;28;20262;-75
2021/11/27 05:53:51;;;;;;;1.60;1.50;;;6.70;1.00;;;;;;4993581;28;20471;-74
2021/11/27 05:56:16;;;;;;;1.70;1.17;;;5.00;1.00;;;;;;4997922;28;20432;-76
2021/11/27 05:58:42;;;;;;;1.50;1.40;;;5.00;1.00;;;;;;4993987;28;20182;-76
2021/11/27 06:01:10;;;;;;;1.57;1.47;;;;;;;;;;4993593;28;20173;-76
2021/11/27 06:03:36;;;;;;;2.87;1.80;;;5.00;1.00;;;;;;4993646;28;20240;-75
2021/11/27 06:06:02;;;;;;;1.97;1.80;;;5.10;1.00;;;;;;4993394;28;20960;-76
2021/11/27 06:08:28;;;;;;;1.83;1.67;;;5.00;1.00;;;;;;4993771;28;20412;-75
2021/11/27 06:10:53;;;;;;;1.60;1.50;;;5.00;1.00;;;;;;4994419;28;20938;-75
2021/11/27 06:13:19;;;;;;;1.70;1.60;;;;;;;;;;4993416;28;20186;-76
2021/11/27 06:15:47;;;;;;;1.83;1.50;;;5.10;1.00;;;;;;4993521;28;20181;-76
2021/11/27 06:18:13;;;;;;;2.77;1.20;;;5.00;1.00;;;;;;4993032;28;20429;-75
2021/11/27 06:20:38;;;;;;;1.43;1.37;;;5.00;1.00;;;;;;4993282;28;20433;-76
2021/11/27 06:23:04;;;;;;;1.60;1.50;;;5.00;1.00;;;;;;4993045;28;20297;-76
2021/11/27 06:25:30;;;;;;;1.27;1.23;;;5.00;1.00;;;;;;4993629;28;20204;-77
2021/11/27 06:27:56;;;;;;;1.33;1.23;;;5.00;1.00;;;;;;4993575;28;20722;-76
2021/11/27 06:30:22;;;;;;;4.33;1.37;;;5.00;1.00;;;;;;4993505;28;20645;-76
2021/11/27 06:32:48;;;;;;;1.70;1.60;;;;;;;;;;4992765;28;20754;-76
2021/11/27 06:35:14;;;;;;;1.42;1.33;;;5.00;1.00;;;;;;4992990;28;20433;-75
2021/11/27 06:37:39;;;;;;;1.53;1.43;;;5.00;1.00;;;;;;4993176;28;20220;-75
2021/11/27 06:40:06;;;;;;;1.60;1.50;;;5.00;1.00;;;;;;4993456;28;20471;-75
2021/11/27 06:42:32;;;;;;;1.73;1.63;;;4.90;1.00;;;;;;4993685;28;20456;-76
2021/11/27 06:44:58;;;;;;;2.40;1.63;;;;;;;;;;4993127;28;20523;-78
2021/11/27 06:47:24;;;;;;;1.90;1.63;;;4.90;1.00;;;;;;4992858;28;20174;-76
2021/11/27 06:49:51;;;;;;;1.27;1.23;;;4.90;1.00;;;;;;4993128;28;20491;-77
2021/11/27 06:52:18;;;;;;;1.70;1.60;;;4.90;1.00;;;;;;4992904;28;20637;-76
2021/11/27 06:54:44;;;;;;;2.27;2.07;;;4.90;1.00;;;;;;4995572;28;20443;-75
2021/11/27 06:57:10;;;;;;;2.70;2.20;;;4.90;1.00;;;;;;4995152;28;20464;-76
2021/11/27 06:59:38;;;;;;;3.13;2.10;;;4.90;1.00;;;;;;4993586;28;20439;-76
2021/11/27 07:02:04;;;;;;;2.40;1.90;;;5.00;1.00;;;;;;4996952;28;20436;-75
2021/11/27 07:04:31;;;;;;;18.03;1.80;;;5.10;1.00;;;;;;4996773;28;20917;-74
2021/11/27 07:06:57;;;;;;;2.33;2.10;;;5.00;1.00;;;;;;4996719;28;20440;-74
2021/11/27 07:09:22;;;;;;;5.10;2.03;;;5.00;1.00;;;;;;4996854;28;20428;-74
2021/11/27 07:11:48;;;;;;;5.13;2.00;;;5.00;1.00;;;;;;4997730;28;20432;-74
2021/11/27 07:14:15;;;;;;;3.00;1.77;;;5.10;1.00;;;;;;4997080;28;20619;-74
2021/11/27 07:16:40;;;;;;;4.30;2.03;;;5.00;1.00;;;;;;4996501;28;20543;-74
2021/11/27 07:19:06;;;;;;;2.23;2.03;;;5.00;1.00;;;;;;4996725;28;20644;-74
2021/11/27 07:21:32;;;;;;;2.20;1.70;;;5.00;1.00;;;;;;4996802;28;20235;-74
2021/11/27 07:23:58;;;;;;;2.27;2.10;;;5.10;1.00;;;;;;4992085;28;20860;-74
2021/11/27 07:26:27;;;;;;;2.40;2.03;;;5.10;1.00;;;;;;4995737;28;20511;-74
2021/11/27 07:28:54;;;;;;;2.10;2.00;;;5.10;1.00;;;;;;4996566;28;20181;-75
2021/11/27 07:31:20;;;;;;;2.30;2.13;;;5.10;1.00;;;;;;4996663;28;20416;-76
2021/11/27 07:33:47;;;;;;;2.10;2.00;;;;;;;;;;4996599;28;20442;-75
2021/11/27 07:36:12;;;;;;;5.30;2.70;;;5.10;1.00;;;;;;4996610;28;20188;-75
2021/11/27 07:38:38;;;;;;;3.03;2.53;;;5.10;1.00;;;;;;4995718;28;20440;-75
2021/11/27 07:41:04;;;;;;;3.67;2.77;;;5.10;1.00;;;;;;4996210;28;20276;-76
2021/11/27 07:43:30;;;;;;;4.17;2.77;;;5.20;1.00;;;;;;4996490;28;20513;-74
2021/11/27 07:45:56;;;;;;;4.97;3.20;;;5.20;1.00;;;;;;4996060;28;20456;-74
2021/11/27 07:48:31;;;;;;;2.53;2.33;;;;;;;;;;4995798;28;20753;-75
2021/11/27 07:50:57;;;;;;;17.60;3.10;;;5.30;1.00;;;;;;4983493;28;20405;-74
2021/11/27 07:53:23;;;;;;;4.77;2.67;;;5.40;1.00;;;;;;4995866;28;20436;-74
2021/11/27 07:55:49;;;;;;;3.20;2.93;;;5.30;1.00;;;;;;5000503;28;20881;-74
2021/11/27 07:58:14;;;;;;;5.43;3.00;;;5.40;1.00;;;;;;4996059;28;20220;-76
2021/11/27 08:00:40;;;;;;;3.70;2.47;;;5.30;1.00;;;;;;4996144;28;20190;-77
2021/11/27 08:03:06;;;;;;;4.17;2.80;;;;;;;;;;4996089;28;20213;-77
2021/11/27 08:05:32;;;;;;;3.27;2.83;;;5.40;1.00;;;;;;4996279;28;20254;-78
2021/11/27 08:07:57;;;;;;;3.10;2.43;;;5.40;1.00;;;;;;4996135;28;20420;-78
2021/11/27 08:10:23;;;;;;;3.50;2.47;;;;;;;;;;4995252;28;20265;-77
2021/11/27 08:12:54;;;;;;;2.70;2.50;;;5.50;1.00;;;;;;4993805;28;20209;-80
2021/11/27 08:15:20;;;;;;;2.80;2.60;;;5.50;1.00;;;;;;4991343;28;20830;-76
2021/11/27 08:17:46;;;;;;;3.20;2.23;;;5.60;1.00;;;;;;4996514;28;20511;-74
2021/11/27 08:23:34;;;;;;;2.67;2.47;;;5.80;1.00;;;;;;4988002;28;20173;-75
2021/11/27 08:26:03;;;;;;;5.20;2.47;;;5.90;1.00;;;;;;4994776;28;20550;-78
2021/11/27 08:28:30;;;;;;;3.57;2.73;;;5.90;1.00;;;;;;4995527;28;20460;-76
2021/11/27 08:30:57;;;;;;;2.70;2.30;;;6.10;1.00;;;;;;4994064;28;20941;-75
2021/11/27 08:33:23;;;;;;;2.33;2.13;;;6.20;1.00;;;;;;4991410;28;20433;-75
2021/11/27 08:36:35;;;;;;;4.30;2.67;;;6.30;1.00;;;;;;4995934;28;20432;-75
2021/11/27 08:39:05;;;;;;;2.37;2.13;;;6.30;1.00;;;;;;4996497;28;20852;-75
2021/11/27 08:41:36;;;;;;;3.70;2.00;;;6.30;1.00;;;;;;4996203;28;20515;-76
2021/11/27 08:44:17;;;;;;;3.47;2.27;;;6.40;1.00;;;;;;4996462;28;20765;-76
2021/11/27 08:46:54;;;;;;;2.37;2.17;;;6.40;1.00;;;;;;4995480;28;20429;-76
2021/11/27 08:49:35;;;;;;;3.80;2.67;;;6.40;1.00;;;;;;4983966;28;20423;-76
2021/11/27 08:52:47;;;;;;;2.27;2.07;;;6.50;1.00;;;;;;4995733;28;20425;-76
2021/11/27 08:55:47;;;;;;;3.60;2.30;;;6.60;1.00;;;;;;4996011;28;20432;-76
2021/11/27 08:58:17;;;;;;;2.30;2.10;;;6.60;1.00;;;;;;4996370;28;20459;-76
2021/11/27 09:00:44;;;;;;;2.47;2.37;;;6.50;1.00;;;;;;4995310;28;20515;-74
2021/11/27 09:03:10;;;;;;;2.43;2.20;;;6.50;1.00;;;;;;4994030;28;20428;-75
2021/11/27 09:05:36;;;;;;;1.87;1.77;;;6.40;1.00;;;;;;4979021;28;20479;-74
2021/11/27 09:08:02;;;;;;;2.70;2.47;;;6.20;1.00;;;;;;4987208;28;20213;-76
2021/11/27 09:10:28;;;;;;;2.50;1.87;;;6.20;1.00;;;;;;4987148;28;20446;-76
2021/11/27 09:12:54;;;;;;;3.33;2.17;;;;;;;;;;4990221;28;20449;-76
2021/11/27 09:15:23;;;;;;;3.20;2.37;;;6.10;1.00;;;;;;4998200;28;20409;-77
2021/11/27 09:17:49;;;;;;;6.33;2.40;;;6.00;1.00;;;;;;4994261;28;20505;-77
2021/11/27 09:20:15;;;;;;;2.00;1.90;;;6.00;1.00;;;;;;4994793;28;20424;-76
2021/11/27 09:22:41;;;;;;;2.03;1.93;;;;;;;;;;4993845;28;20764;-76
2021/11/27 09:28:29;;;;;;;2.20;2.10;;;5.80;1.00;;;;;;4975756;28;20401;-76
2021/11/27 09:30:55;;;;;;;1.97;1.87;;;5.80;1.00;;;;;;4991676;28;20408;-73
2021/11/27 09:33:21;;;;;;;3.47;2.70;;;5.80;1.00;;;;;;4994732;28;20216;-73
2021/11/27 09:36:00;;;;;;;3.27;1.90;;;5.80;1.00;;;;;;4994294;28;20225;-73
2021/11/27 09:38:27;;;;;;;2.05;1.95;;;5.70;1.00;;;;;;4994657;28;20578;-73
2021/11/27 09:41:02;;;;;;;2.13;2.03;;;5.60;1.00;;;;;;4986780;28;20182;-73
2021/11/27 09:43:28;;;;;;;1.57;1.47;;;5.70;1.00;;;;;;4994869;28;20515;-73
2021/11/27 09:45:55;;;;;;;2.83;1.40;;;5.70;1.00;;;;;;4995138;28;20464;-73
2021/11/27 09:48:21;;;;;;;2.60;2.10;;;5.70;1.00;;;;;;4993171;28;20425;-73
2021/11/27 09:50:47;;;;;;;2.47;2.20;;;;;;;;;;4994686;28;20421;-74
2021/11/27 09:53:13;;;;;;;4.30;2.10;;;;;;;;;;4994498;28;20420;-73
2021/11/27 09:55:42;;;;;;;2.23;1.53;;;5.70;1.00;;;;;;5003892;28;20423;-73
2021/11/27 09:58:07;;;;;;;2.23;2.13;;;5.80;1.00;;;;;;4988032;28;20401;-73
2021/11/27 10:01:17;;;;;;;2.37;2.17;;;5.80;1.00;;;;;;4994627;28;20935;-77
2021/11/27 10:04:20;;;;;;;3.20;2.10;;;5.90;1.00;;;;;;4994484;28;20240;-77
2021/11/27 10:07:08;;;;;;;5.60;2.53;;;5.90;1.00;;;;;;4994532;28;20424;-77
2021/11/27 10:09:45;;;;;;;3.10;1.93;;;5.90;1.00;;;;;;4993640;28;20508;-77
2021/11/27 10:12:13;;;;;;;2.27;2.07;;;5.90;1.00;;;;;;4994257;28;20435;-76
2021/11/27 10:14:41;;;;;;;1.77;1.40;;;6.00;1.00;;;;;;4994876;28;20413;-74
2021/11/27 10:17:17;;;;;;;2.43;2.13;;;6.00;1.00;;;;;;4994466;28;20500;-73
2021/11/27 10:19:43;;;;;;;1.90;1.80;;;6.10;1.00;;;;;;4994037;28;20843;-73
2021/11/27 10:22:14;;;;;;;1.83;1.70;;;6.20;1.00;;;;;;4996352;28;20448;-73
2021/11/27 10:24:46;;;;;;;3.67;1.97;;;6.30;1.00;;;;;;4979884;28;20630;-73
2021/11/27 10:27:29;;;;;;;1.97;1.73;;;6.30;1.00;;;;;;4994369;28;20467;-73
2021/11/27 10:30:23;;;;;;;2.07;1.90;;;6.40;1.00;;;;;;4982785;28;20420;-76
2021/11/27 10:32:55;;;;;;;1.80;1.70;;;6.40;1.00;;;;;;4994272;28;20413;-78
2021/11/27 10:35:21;;;;;;;7.30;1.87;;;6.40;1.00;;;;;;4988059;28;20409;-76
2021/11/27 10:37:53;;;;;;;6.83;1.70;;;6.40;1.00;;;;;;4987452;28;20452;-77
2021/11/27 10:40:41;;;;;;;1.80;1.70;;;6.40;1.00;;;;;;4981589;28;20828;-76
2021/11/27 10:43:35;;;;;;;2.83;1.87;;;6.50;1.00;;;;;;4994150;28;20439;-76
2021/11/27 10:46:02;;;;;;;1.57;1.47;;;6.50;1.00;;;;;;4994610;28;20935;-73
2021/11/27 10:48:29;;;;;;;1.83;1.70;;;6.70;1.00;;;;;;4994014;28;20412;-74
2021/11/27 10:51:00;;;;;;;1.57;1.47;;;6.60;1.00;;;;;;4980871;28;20401;-73
2021/11/27 10:53:38;;;;;;;1.73;1.40;;;6.70;1.00;;;;;;4992471;28;20435;-73
2021/11/27 10:56:09;;;;;;;2.70;1.70;;;6.80;1.00;;;;;;4993713;28;20423;-74
2021/11/27 10:59:12;;;;;;;2.60;2.00;;;6.80;1.00;;;;;;4993955;28;20415;-73
2021/11/27 11:02:00;;;;;;;1.60;1.27;;;;;;;;;;4989799;28;20417;-73
2021/11/27 11:04:36;;;;;;;1.47;1.40;;;6.80;1.00;;;;;;4993838;28;20543;-73
2021/11/27 11:07:53;;;;;;;1.30;1.20;;;6.80;1.00;;;;;;4991894;28;20413;-74
2021/11/27 11:10:32;;;;;;;1.40;1.30;;;6.70;1.00;;;;;;4993566;28;20445;-77
2021/11/27 11:13:05;;;;;;;1.93;1.27;;;6.50;1.00;;;;;;4981438;28;20420;-77
2021/11/27 11:16:07;;;;;;;1.87;1.27;;;6.40;1.00;;;;;;4994557;28;20405;-76
2021/11/27 11:18:33;;;;;;;0.90;0.90;;;6.30;1.00;;;;;;4994063;28;20412;-77
2021/11/27 11:21:04;;;;;;;1.00;1.00;;;6.20;1.00;;;;;;4993960;28;20979;-77
2021/11/27 11:24:23;;;;;;;9.43;0.97;;;6.10;1.00;;;;;;4993878;28;20443;-80
2021/11/27 11:26:55;;;;;;;0.87;0.87;;;6.10;1.00;;;;;;4989653;28;20428;-77
2021/11/27 11:29:21;;;;;;;0.90;0.90;;;6.20;1.00;;;;;;4994104;28;20529;-76
2021/11/27 11:31:48;;;;;;;0.93;0.93;;;6.30;1.00;;;;;;4984274;28;20409;-74
2021/11/27 11:34:13;;;;;;;1.17;1.13;;;6.30;1.00;;;;;;4990221;28;20503;-73
2021/11/27 11:36:41;;;;;;;1.10;1.00;;;6.40;1.00;;;;;;4993457;28;20853;-74
2021/11/27 11:39:12;;;;;;;0.97;0.80;;;;;;;;;;4993737;28;20193;-74
2021/11/27 11:41:38;;;;;;;1.03;1.03;;;6.50;1.00;;;;;;4993404;28;20457;-73
2021/11/27 11:44:05;;;;;;;0.80;0.80;;;;;;;;;;4992336;28;20428;-74
2021/11/27 11:46:37;;;;;;;1.67;1.10;;;6.70;1.00;;;;;;4995072;28;20404;-75
2021/11/27 11:49:25;;;;;;;0.90;0.90;;;6.90;1.00;;;;;;4997352;28;20412;-75
2021/11/27 11:52:35;;;;;;;0.90;0.90;;;7.10;1.00;;;;;;4997089;28;20385;-76
2021/11/27 11:55:16;;;;;;;1.20;1.10;;;7.50;1.00;;;;;;4999154;28;20963;-76
2021/11/27 11:57:52;;;;;;;1.20;1.10;;;7.70;1.00;;;;;;5007813;28;20413;-76
2021/11/27 12:00:38;;;;;;;0.83;0.83;;;7.70;1.00;;;;;;4997630;28;20408;-74
2021/11/27 12:03:04;;;;;;;1.07;0.90;;;;;;;;;;4997162;28;20992;-76
2021/11/27 12:06:06;;;;;;;1.90;1.00;;;7.80;1.00;;;;;;4984055;28;20511;-76
2021/11/27 12:08:51;;;;;;;1.10;1.00;;;7.80;1.00;;;;;;4936619;29;20427;-76
2021/11/27 12:12:05;;;;;;;0.97;0.83;;;7.70;1.00;;;;;;4936980;29;20946;-77
2021/11/27 12:14:33;;;;;;;1.17;1.10;;;7.80;1.00;;;;;;4936660;29;20584;-77
2021/11/27 12:17:19;;;;;;;1.73;1.10;;;7.90;1.00;;;;;;4930206;29;21008;-73
2021/11/27 12:19:50;;;;;;;1.60;1.00;;;7.90;1.00;;;;;;4923834;29;20423;-73
2021/11/27 12:22:33;;;;;;;2.03;0.97;;;7.80;1.00;;;;;;4936589;29;20429;-74
2021/11/27 12:25:11;;;;;;;0.70;0.70;;;7.80;1.00;;;;;;4929032;29;20511;-74
2021/11/27 12:27:58;;;;;;;1.20;1.10;;;7.80;1.00;;;;;;4936411;29;20407;-74
2021/11/27 12:30:25;;;;;;;0.90;0.90;;;7.70;1.00;;;;;;4936648;29;20419;-74
2021/11/27 12:32:59;;;;;;;1.10;1.00;;;7.60;1.00;;;;;;4935972;29;20447;-75
2021/11/27 12:35:30;;;;;;;0.93;0.93;;;7.60;1.00;;;;;;4935262;29;20486;-74
2021/11/27 12:38:08;;;;;;;4.53;0.87;;;7.60;1.00;;;;;;4930467;29;20994;-74
2021/11/27 12:40:42;;;;;;;3.10;0.93;;;7.60;1.00;;;;;;4929478;29;20423;-75
2021/11/27 12:43:09;;;;;;;1.50;1.17;;;7.70;1.00;;;;;;4935130;29;20422;-74
2021/11/27 12:45:43;;;;;;;1.10;1.10;;;;;;;;;;4982990;28;20428;-74
2021/11/27 12:48:31;;;;;;;1.10;1.00;;;7.60;1.00;;;;;;4994614;28;20421;-74
2021/11/27 12:51:15;;;;;;;1.27;1.17;;;7.70;1.00;;;;;;4961506;28;20425;-74
2021/11/27 12:54:04;;;;;;;1.13;0.80;;;7.70;1.00;;;;;;4962365;28;20449;-74
2021/11/27 12:56:53;;;;;;;0.87;0.87;;;7.70;1.00;;;;;;4950204;29;20431;-74
2021/11/27 12:59:22;;;;;;;2.23;1.00;;;7.80;1.00;;;;;;4851027;29;20444;-75
2021/11/27 13:01:52;;;;;;;1.00;0.90;;;7.90;1.00;;;;;;4857025;29;20808;-75
2021/11/27 13:04:22;;;;;;;2.10;1.17;;;8.20;1.00;;;;;;4852169;29;20436;-76
2021/11/27 13:06:53;;;;;;;4.10;1.10;;;8.10;1.00;;;;;;4851402;29;20430;-76
2021/11/27 13:09:20;;;;;;;1.00;1.00;;;8.10;1.00;;;;;;4852089;29;20440;-75
2021/11/27 13:11:50;;;;;;;1.00;0.93;;;8.20;1.00;;;;;;4858411;29;20843;-73
2021/11/27 13:14:29;;;;;;;5.83;1.03;;;11.10;1.00;;;;;;4859327;29;20427;-74
2021/11/27 13:17:07;;;;;;;1.27;1.17;;;8.10;1.00;;;;;;4859888;29;20502;-76
2021/11/27 13:19:36;;;;;;;2.37;1.00;;;8.30;1.00;;;;;;4859424;29;20435;-76
2021/11/27 13:22:05;;;;;;;1.20;1.20;;;8.30;1.00;;;;;;4856122;29;20527;-75
2021/11/27 13:24:36;;;;;;;1.03;1.00;;;8.10;1.00;;;;;;4843968;29;20937;-76
2021/11/27 13:27:05;;;;;;;8.43;1.50;;;7.90;1.00;;;;;;4851208;29;20440;-76
2021/11/27 13:29:30;;;;;;;1.70;0.80;;;7.80;1.00;;;;;;4858707;29;20447;-76
2021/11/27 13:31:57;;;;;;;0.80;0.80;;;7.40;1.00;;;;;;4859372;29;20432;-74
2021/11/27 13:34:23;;;;;;;3.13;1.53;;;7.10;1.00;;;;;;4891370;29;20238;-74
2021/11/27 13:36:54;;;;;;;1.20;1.10;;;7.00;1.00;;;;;;4956221;28;20432;-73
2021/11/27 13:39:31;;;;;;;1.47;1.33;;;6.80;1.00;;;;;;4990493;28;20441;-73